IBE3MB GMMN-LPPT
Flight info
| Callsign | IBE3MB |
|---|---|
| Flight time | 0h 55m |
| Altitude | 36000 |
| Route | LAKAM UR722 AMSEL DCT VATZI |
| Aircraft | A346/H-SDE2E3FGHIJ3J4J5M1RWXY/LB1D1 |
Departure
| Time | 2026-05-07 16:27 |
|---|---|
| Airport | Mohammed V International Airport (GMMN) |
Arrival
| Time | 2026-05-07 17:22 |
|---|---|
| Airport | Lisbon Humberto Delgado Airport (LPPT) |
| Time | Latitude | Longitude | Altitude | Speed | Heading |
|---|---|---|---|---|---|
| 2026-05-07 15:30 | 33.37621 | -7.58344 | 661 ft | 0 kts | 122° |
| 2026-05-07 16:15 | 33.37622 | -7.58347 | 661 ft | 3 kts | 122° |
| 2026-05-07 16:15 | 33.37636 | -7.58374 | 661 ft | 4 kts | 122° |
| 2026-05-07 16:15 | 33.37651 | -7.58401 | 659 ft | 4 kts | 122° |
| 2026-05-07 16:16 | 33.37653 | -7.58404 | 659 ft | 4 kts | 118° |
| 2026-05-07 16:16 | 33.37649 | -7.58391 | 659 ft | 4 kts | 93° |
| 2026-05-07 16:16 | 33.37653 | -7.58420 | 658 ft | 4 kts | 112° |
| 2026-05-07 16:16 | 33.37662 | -7.58437 | 658 ft | 4 kts | 152° |
| 2026-05-07 16:17 | 33.37610 | -7.58436 | 661 ft | 0 kts | 356° |
| 2026-05-07 16:20 | 33.37611 | -7.58436 | 661 ft | 1 kts | 356° |
| 2026-05-07 16:20 | 33.37618 | -7.58437 | 661 ft | 2 kts | 356° |
| 2026-05-07 16:20 | 33.37654 | -7.58441 | 659 ft | 12 kts | 352° |
| 2026-05-07 16:21 | 33.37748 | -7.58469 | 661 ft | 15 kts | 344° |
| 2026-05-07 16:21 | 33.37840 | -7.58545 | 661 ft | 18 kts | 310° |
| 2026-05-07 16:21 | 33.37906 | -7.58680 | 661 ft | 20 kts | 278° |
| 2026-05-07 16:21 | 33.37881 | -7.58783 | 661 ft | 12 kts | 216° |
| 2026-05-07 16:22 | 33.37790 | -7.58784 | 661 ft | 15 kts | 165° |
| 2026-05-07 16:22 | 33.37671 | -7.58745 | 661 ft | 22 kts | 164° |
| 2026-05-07 16:22 | 33.37515 | -7.58691 | 661 ft | 26 kts | 164° |
| 2026-05-07 16:22 | 33.37331 | -7.58628 | 661 ft | 28 kts | 164° |
| 2026-05-07 16:23 | 33.37138 | -7.58561 | 661 ft | 29 kts | 164° |
| 2026-05-07 16:23 | 33.36938 | -7.58493 | 661 ft | 30 kts | 164° |
| 2026-05-07 16:23 | 33.36736 | -7.58424 | 661 ft | 30 kts | 164° |
| 2026-05-07 16:23 | 33.36530 | -7.58354 | 661 ft | 31 kts | 164° |
| 2026-05-07 16:24 | 33.36322 | -7.58282 | 661 ft | 30 kts | 164° |
| 2026-05-07 16:24 | 33.36118 | -7.58212 | 661 ft | 31 kts | 164° |
| 2026-05-07 16:24 | 33.35909 | -7.58141 | 661 ft | 32 kts | 164° |
| 2026-05-07 16:24 | 33.35706 | -7.58072 | 661 ft | 29 kts | 164° |
| 2026-05-07 16:25 | 33.35520 | -7.58008 | 661 ft | 28 kts | 164° |
| 2026-05-07 16:25 | 33.35337 | -7.57948 | 661 ft | 21 kts | 172° |
| 2026-05-07 16:25 | 33.35250 | -7.58036 | 661 ft | 19 kts | 248° |
| 2026-05-07 16:25 | 33.35211 | -7.58186 | 662 ft | 10 kts | 258° |
| 2026-05-07 16:26 | 33.35235 | -7.58265 | 663 ft | 12 kts | 328° |
| 2026-05-07 16:26 | 33.35325 | -7.58297 | 661 ft | 15 kts | 344° |
| 2026-05-07 16:26 | 33.35624 | -7.58400 | 656 ft | 78 kts | 344° |
| 2026-05-07 16:26 | 33.36347 | -7.58644 | 659 ft | 136 kts | 344° |
| 2026-05-07 16:27 | 33.37417 | -7.59019 | 742 ft | 177 kts | 344° |
| 2026-05-07 16:27 | 33.38642 | -7.59449 | 1442 ft | 180 kts | 345° |
| 2026-05-07 16:27 | 33.39837 | -7.59886 | 2313 ft | 178 kts | 343° |
| 2026-05-07 16:27 | 33.41000 | -7.60326 | 3176 ft | 174 kts | 344° |
| 2026-05-07 16:28 | 33.42202 | -7.60722 | 3653 ft | 186 kts | 341° |
| 2026-05-07 16:28 | 33.43291 | -7.61618 | 4046 ft | 202 kts | 311° |
| 2026-05-07 16:28 | 33.44118 | -7.63073 | 4413 ft | 220 kts | 301° |
| 2026-05-07 16:28 | 33.44932 | -7.64711 | 4792 ft | 238 kts | 300° |
| 2026-05-07 16:29 | 33.45819 | -7.66469 | 5281 ft | 252 kts | 301° |
| 2026-05-07 16:29 | 33.46749 | -7.68245 | 6145 ft | 252 kts | 302° |
| 2026-05-07 16:29 | 33.47975 | -7.69793 | 6792 ft | 268 kts | 329° |
| 2026-05-07 16:29 | 33.49823 | -7.70400 | 7306 ft | 286 kts | 356° |
| 2026-05-07 16:30 | 33.51838 | -7.70412 | 8031 ft | 293 kts | 360° |
| 2026-05-07 16:30 | 33.53895 | -7.70359 | 8866 ft | 298 kts | 359° |
| 2026-05-07 16:30 | 33.55978 | -7.70350 | 9747 ft | 302 kts | 358° |
| 2026-05-07 16:30 | 33.58106 | -7.70390 | 10486 ft | 310 kts | 356° |
| 2026-05-07 16:31 | 33.60317 | -7.70471 | 10986 ft | 327 kts | 356° |
| 2026-05-07 16:31 | 33.62651 | -7.70583 | 11440 ft | 345 kts | 355° |
| 2026-05-07 16:31 | 33.65109 | -7.70715 | 11878 ft | 363 kts | 355° |
| 2026-05-07 16:31 | 33.67700 | -7.70861 | 12277 ft | 382 kts | 355° |
| 2026-05-07 16:32 | 33.70420 | -7.71017 | 12690 ft | 400 kts | 355° |
| 2026-05-07 16:32 | 33.73231 | -7.71179 | 13361 ft | 408 kts | 355° |
| 2026-05-07 16:32 | 33.76050 | -7.71339 | 14137 ft | 412 kts | 354° |
| 2026-05-07 16:32 | 33.78931 | -7.71502 | 14653 ft | 416 kts | 354° |
| 2026-05-07 16:33 | 33.81840 | -7.71669 | 15065 ft | 422 kts | 354° |
| 2026-05-07 16:33 | 33.84780 | -7.71840 | 15810 ft | 425 kts | 353° |
| 2026-05-07 16:33 | 33.87742 | -7.72009 | 16645 ft | 427 kts | 353° |
| 2026-05-07 16:33 | 33.90791 | -7.72186 | 17401 ft | 431 kts | 353° |
| 2026-05-07 16:34 | 33.93810 | -7.72362 | 18121 ft | 436 kts | 352° |
| 2026-05-07 16:34 | 33.96854 | -7.72542 | 18748 ft | 441 kts | 352° |
| 2026-05-07 16:34 | 33.99934 | -7.72726 | 19385 ft | 445 kts | 352° |
| 2026-05-07 16:34 | 34.03040 | -7.72910 | 20010 ft | 449 kts | 352° |
| 2026-05-07 16:35 | 34.06135 | -7.73092 | 20614 ft | 454 kts | 352° |
| 2026-05-07 16:35 | 34.09302 | -7.73278 | 21220 ft | 458 kts | 352° |
| 2026-05-07 16:35 | 34.12503 | -7.73465 | 21825 ft | 463 kts | 352° |
| 2026-05-07 16:35 | 34.15735 | -7.73655 | 22415 ft | 467 kts | 352° |
| 2026-05-07 16:36 | 34.18997 | -7.73847 | 23007 ft | 471 kts | 352° |
| 2026-05-07 16:36 | 34.22282 | -7.74063 | 23574 ft | 476 kts | 351° |
| 2026-05-07 16:36 | 34.25597 | -7.74297 | 24075 ft | 479 kts | 351° |
| 2026-05-07 16:36 | 34.28935 | -7.74533 | 24617 ft | 482 kts | 351° |
| 2026-05-07 16:37 | 34.32291 | -7.74769 | 25155 ft | 483 kts | 351° |
| 2026-05-07 16:37 | 34.35658 | -7.75003 | 25721 ft | 485 kts | 351° |
| 2026-05-07 16:37 | 34.39028 | -7.75238 | 26264 ft | 487 kts | 351° |
| 2026-05-07 16:37 | 34.42424 | -7.75474 | 26790 ft | 489 kts | 351° |
| 2026-05-07 16:38 | 34.45825 | -7.75710 | 27285 ft | 491 kts | 351° |
| 2026-05-07 16:38 | 34.49237 | -7.75947 | 27769 ft | 493 kts | 351° |
| 2026-05-07 16:38 | 34.52672 | -7.76185 | 28178 ft | 495 kts | 351° |
| 2026-05-07 16:38 | 34.56116 | -7.76425 | 28680 ft | 496 kts | 351° |
| 2026-05-07 16:39 | 34.59539 | -7.76661 | 29406 ft | 492 kts | 351° |
| 2026-05-07 16:39 | 34.63036 | -7.76902 | 30238 ft | 487 kts | 351° |
| 2026-05-07 16:39 | 34.66413 | -7.77135 | 30931 ft | 483 kts | 351° |
| 2026-05-07 16:39 | 34.69756 | -7.77367 | 31580 ft | 480 kts | 351° |
| 2026-05-07 16:40 | 34.73086 | -7.77600 | 32195 ft | 478 kts | 350° |
| 2026-05-07 16:40 | 34.76398 | -7.77845 | 32817 ft | 475 kts | 349° |
| 2026-05-07 16:40 | 34.79690 | -7.78115 | 33395 ft | 473 kts | 349° |
| 2026-05-07 16:40 | 34.82967 | -7.78393 | 33986 ft | 471 kts | 349° |
| 2026-05-07 16:41 | 34.86229 | -7.78670 | 34504 ft | 469 kts | 348° |
| 2026-05-07 16:41 | 34.89438 | -7.78943 | 34931 ft | 468 kts | 348° |
| 2026-05-07 16:41 | 34.92735 | -7.79224 | 35287 ft | 470 kts | 348° |
| 2026-05-07 16:41 | 34.95955 | -7.79497 | 35617 ft | 471 kts | 348° |
| 2026-05-07 16:42 | 34.99233 | -7.79774 | 35915 ft | 473 kts | 348° |
| 2026-05-07 16:42 | 35.05830 | -7.80335 | 35959 ft | 478 kts | 348° |
| 2026-05-07 16:43 | 35.12472 | -7.80892 | 35953 ft | 478 kts | 348° |
| 2026-05-07 16:43 | 35.19107 | -7.81448 | 35956 ft | 478 kts | 348° |
| 2026-05-07 16:44 | 35.25748 | -7.82006 | 35969 ft | 478 kts | 348° |
| 2026-05-07 16:44 | 35.32395 | -7.82565 | 35954 ft | 479 kts | 348° |
| 2026-05-07 16:45 | 35.39040 | -7.83129 | 35952 ft | 479 kts | 348° |
| 2026-05-07 16:45 | 35.45691 | -7.83707 | 35952 ft | 479 kts | 348° |
| 2026-05-07 16:46 | 35.52333 | -7.84307 | 35969 ft | 478 kts | 348° |
| 2026-05-07 16:46 | 35.58948 | -7.84904 | 35954 ft | 476 kts | 348° |
| 2026-05-07 16:47 | 35.65555 | -7.85504 | 35947 ft | 476 kts | 348° |
| 2026-05-07 16:47 | 35.72168 | -7.86103 | 35946 ft | 476 kts | 348° |
| 2026-05-07 16:48 | 35.78693 | -7.87059 | 35941 ft | 464 kts | 337° |
| 2026-05-07 16:48 | 35.84608 | -7.89898 | 35945 ft | 454 kts | 328° |
| 2026-05-07 16:49 | 35.90488 | -7.93119 | 35946 ft | 454 kts | 328° |
| 2026-05-07 16:49 | 35.96277 | -7.96266 | 35946 ft | 455 kts | 328° |
| 2026-05-07 16:50 | 36.02087 | -7.99401 | 35946 ft | 458 kts | 328° |
| 2026-05-07 16:50 | 36.07954 | -8.02571 | 35942 ft | 461 kts | 328° |
| 2026-05-07 16:51 | 36.13832 | -8.05747 | 35941 ft | 461 kts | 328° |
| 2026-05-07 16:51 | 36.19711 | -8.08926 | 35940 ft | 461 kts | 328° |
| 2026-05-07 16:52 | 36.25594 | -8.12110 | 35951 ft | 461 kts | 328° |
| 2026-05-07 16:52 | 36.31464 | -8.15294 | 35942 ft | 461 kts | 328° |
| 2026-05-07 16:53 | 36.37350 | -8.18492 | 35935 ft | 461 kts | 328° |
| 2026-05-07 16:53 | 36.43374 | -8.21770 | 35935 ft | 461 kts | 328° |
| 2026-05-07 16:54 | 36.49259 | -8.24978 | 35950 ft | 461 kts | 328° |
| 2026-05-07 16:54 | 36.55129 | -8.28184 | 35949 ft | 461 kts | 328° |
| 2026-05-07 16:55 | 36.61005 | -8.31398 | 35928 ft | 461 kts | 328° |
| 2026-05-07 16:55 | 36.66874 | -8.34613 | 35931 ft | 461 kts | 328° |
| 2026-05-07 16:56 | 36.72768 | -8.37850 | 35940 ft | 464 kts | 328° |
| 2026-05-07 16:56 | 36.81645 | -8.42731 | 35921 ft | 465 kts | 328° |
| 2026-05-07 16:57 | 36.87562 | -8.45991 | 35922 ft | 465 kts | 328° |
| 2026-05-07 16:57 | 36.93476 | -8.49255 | 35949 ft | 465 kts | 328° |
| 2026-05-07 16:58 | 36.99345 | -8.52499 | 35934 ft | 464 kts | 327° |
| 2026-05-07 16:58 | 37.05241 | -8.55766 | 35922 ft | 464 kts | 327° |
| 2026-05-07 16:59 | 37.11146 | -8.59042 | 35922 ft | 464 kts | 327° |
| 2026-05-07 16:59 | 37.17050 | -8.62324 | 35944 ft | 464 kts | 327° |
| 2026-05-07 17:00 | 37.23011 | -8.65640 | 35930 ft | 463 kts | 327° |
| 2026-05-07 17:00 | 37.25937 | -8.67269 | 35730 ft | 458 kts | 327° |
| 2026-05-07 17:00 | 37.28848 | -8.68893 | 34994 ft | 458 kts | 327° |
| 2026-05-07 17:01 | 37.31763 | -8.70527 | 34154 ft | 459 kts | 327° |
| 2026-05-07 17:01 | 37.34674 | -8.72158 | 33322 ft | 458 kts | 328° |
| 2026-05-07 17:01 | 37.37593 | -8.73799 | 32255 ft | 462 kts | 328° |
| 2026-05-07 17:01 | 37.40551 | -8.75467 | 31141 ft | 468 kts | 329° |
| 2026-05-07 17:02 | 37.43540 | -8.77152 | 30121 ft | 473 kts | 330° |
| 2026-05-07 17:02 | 37.46557 | -8.78842 | 29160 ft | 476 kts | 331° |
| 2026-05-07 17:02 | 37.49593 | -8.80535 | 28123 ft | 479 kts | 331° |
| 2026-05-07 17:02 | 37.52647 | -8.82242 | 27179 ft | 481 kts | 331° |
| 2026-05-07 17:03 | 37.55647 | -8.83923 | 26597 ft | 475 kts | 331° |
| 2026-05-07 17:03 | 37.58655 | -8.85579 | 25998 ft | 470 kts | 333° |
| 2026-05-07 17:03 | 37.61712 | -8.87051 | 25341 ft | 469 kts | 336° |
| 2026-05-07 17:03 | 37.64800 | -8.88352 | 24751 ft | 466 kts | 337° |
| 2026-05-07 17:04 | 37.67845 | -8.89591 | 24104 ft | 454 kts | 338° |
| 2026-05-07 17:04 | 37.70796 | -8.90777 | 23613 ft | 435 kts | 338° |
| 2026-05-07 17:04 | 37.73622 | -8.91914 | 23158 ft | 416 kts | 337° |
| 2026-05-07 17:04 | 37.76324 | -8.93008 | 22561 ft | 402 kts | 337° |
| 2026-05-07 17:05 | 37.78966 | -8.94087 | 21586 ft | 399 kts | 337° |
| 2026-05-07 17:05 | 37.81625 | -8.95182 | 20283 ft | 405 kts | 338° |
| 2026-05-07 17:05 | 37.84323 | -8.96292 | 19157 ft | 408 kts | 339° |
| 2026-05-07 17:05 | 37.86978 | -8.97374 | 18668 ft | 392 kts | 339° |
| 2026-05-07 17:06 | 37.89551 | -8.98417 | 18330 ft | 374 kts | 339° |
| 2026-05-07 17:06 | 37.91966 | -8.99399 | 18004 ft | 356 kts | 339° |
| 2026-05-07 17:06 | 37.94284 | -9.00344 | 17674 ft | 340 kts | 339° |
| 2026-05-07 17:06 | 37.96489 | -9.01247 | 17279 ft | 327 kts | 339° |
| 2026-05-07 17:07 | 37.98614 | -9.02120 | 16952 ft | 313 kts | 339° |
| 2026-05-07 17:07 | 38.00642 | -9.02953 | 16659 ft | 300 kts | 338° |
| 2026-05-07 17:07 | 38.02593 | -9.03772 | 16218 ft | 293 kts | 338° |
| 2026-05-07 17:07 | 38.03870 | -9.04315 | 15867 ft | 291 kts | 338° |
| 2026-05-07 17:08 | 38.05787 | -9.05132 | 15336 ft | 289 kts | 339° |
| 2026-05-07 17:08 | 38.07686 | -9.05938 | 14818 ft | 287 kts | 339° |
| 2026-05-07 17:08 | 38.09578 | -9.06738 | 14304 ft | 286 kts | 339° |
| 2026-05-07 17:08 | 38.11474 | -9.07543 | 13804 ft | 284 kts | 339° |
| 2026-05-07 17:09 | 38.13338 | -9.08333 | 13260 ft | 281 kts | 340° |
| 2026-05-07 17:09 | 38.15183 | -9.09110 | 12774 ft | 278 kts | 340° |
| 2026-05-07 17:09 | 38.17066 | -9.09570 | 12217 ft | 278 kts | 5° |
| 2026-05-07 17:09 | 38.18874 | -9.08804 | 11678 ft | 275 kts | 38° |
| 2026-05-07 17:10 | 38.20221 | -9.07132 | 11229 ft | 269 kts | 48° |
| 2026-05-07 17:10 | 38.21741 | -9.05793 | 10894 ft | 271 kts | 13° |
| 2026-05-07 17:10 | 38.23574 | -9.05778 | 10619 ft | 262 kts | 337° |
| 2026-05-07 17:10 | 38.25191 | -9.06789 | 10085 ft | 260 kts | 332° |
| 2026-05-07 17:11 | 38.26889 | -9.07630 | 9525 ft | 263 kts | 341° |
| 2026-05-07 17:11 | 38.28634 | -9.08297 | 8985 ft | 262 kts | 341° |
| 2026-05-07 17:11 | 38.30375 | -9.08975 | 8468 ft | 261 kts | 341° |
| 2026-05-07 17:11 | 38.32091 | -9.09687 | 8030 ft | 257 kts | 336° |
| 2026-05-07 17:12 | 38.33532 | -9.10910 | 7571 ft | 246 kts | 303° |
| 2026-05-07 17:12 | 38.34207 | -9.12831 | 7115 ft | 235 kts | 271° |
| 2026-05-07 17:12 | 38.34073 | -9.14890 | 6932 ft | 231 kts | 256° |
| 2026-05-07 17:12 | 38.33740 | -9.16907 | 6934 ft | 233 kts | 256° |
| 2026-05-07 17:13 | 38.33513 | -9.18945 | 6905 ft | 235 kts | 275° |
| 2026-05-07 17:13 | 38.34171 | -9.20855 | 6906 ft | 244 kts | 311° |
| 2026-05-07 17:13 | 38.35589 | -9.22043 | 6917 ft | 247 kts | 342° |
| 2026-05-07 17:13 | 38.37286 | -9.22336 | 6637 ft | 244 kts | 356° |
| 2026-05-07 17:14 | 38.38997 | -9.22384 | 6249 ft | 248 kts | 356° |
| 2026-05-07 17:14 | 38.40724 | -9.22436 | 5907 ft | 249 kts | 356° |
| 2026-05-07 17:14 | 38.42443 | -9.22514 | 5663 ft | 245 kts | 354° |
| 2026-05-07 17:14 | 38.44056 | -9.23020 | 5415 ft | 236 kts | 324° |
| 2026-05-07 17:15 | 38.45287 | -9.24308 | 5285 ft | 224 kts | 311° |
| 2026-05-07 17:15 | 38.46346 | -9.25729 | 5128 ft | 217 kts | 309° |
| 2026-05-07 17:15 | 38.47352 | -9.27118 | 4964 ft | 208 kts | 309° |
| 2026-05-07 17:15 | 38.48338 | -9.28408 | 4785 ft | 199 kts | 322° |
| 2026-05-07 17:16 | 38.49642 | -9.28841 | 4550 ft | 198 kts | 4° |
| 2026-05-07 17:16 | 38.50948 | -9.28335 | 4275 ft | 196 kts | 18° |
| 2026-05-07 17:16 | 38.52191 | -9.27637 | 4033 ft | 194 kts | 20° |
| 2026-05-07 17:16 | 38.53422 | -9.26917 | 4011 ft | 195 kts | 20° |
| 2026-05-07 17:17 | 38.54666 | -9.26202 | 4014 ft | 195 kts | 19° |
| 2026-05-07 17:17 | 38.55909 | -9.25508 | 3999 ft | 195 kts | 19° |
| 2026-05-07 17:17 | 38.57155 | -9.24825 | 4027 ft | 195 kts | 18° |
| 2026-05-07 17:17 | 38.58405 | -9.24155 | 4015 ft | 195 kts | 19° |
| 2026-05-07 17:18 | 38.59664 | -9.23484 | 3948 ft | 195 kts | 20° |
| 2026-05-07 17:18 | 38.60914 | -9.22813 | 3685 ft | 194 kts | 18° |
| 2026-05-07 17:18 | 38.62152 | -9.22151 | 3430 ft | 192 kts | 17° |
| 2026-05-07 17:18 | 38.63386 | -9.21495 | 3165 ft | 191 kts | 18° |
| 2026-05-07 17:19 | 38.64606 | -9.20842 | 2922 ft | 189 kts | 17° |
| 2026-05-07 17:19 | 38.65811 | -9.20199 | 2663 ft | 186 kts | 18° |
| 2026-05-07 17:19 | 38.66999 | -9.19560 | 2408 ft | 185 kts | 16° |
| 2026-05-07 17:19 | 38.68165 | -9.18941 | 2150 ft | 183 kts | 18° |
| 2026-05-07 17:20 | 38.69364 | -9.18293 | 1907 ft | 182 kts | 17° |
| 2026-05-07 17:20 | 38.70524 | -9.17669 | 1646 ft | 172 kts | 18° |
| 2026-05-07 17:20 | 38.71607 | -9.17083 | 1396 ft | 160 kts | 15° |
| 2026-05-07 17:20 | 38.72635 | -9.16537 | 1207 ft | 167 kts | 16° |
| 2026-05-07 17:21 | 38.73695 | -9.15970 | 1011 ft | 161 kts | 18° |
| 2026-05-07 17:21 | 38.74692 | -9.15413 | 775 ft | 155 kts | 18° |
| 2026-05-07 17:21 | 38.75685 | -9.14895 | 559 ft | 153 kts | 18° |
| 2026-05-07 17:21 | 38.76644 | -9.14382 | 362 ft | 146 kts | 17° |
| 2026-05-07 17:22 | 38.77436 | -9.13966 | 371 ft | 92 kts | 23° |
| 2026-05-07 17:22 | 38.77956 | -9.13687 | 376 ft | 70 kts | 22° |
| 2026-05-07 17:22 | 38.78256 | -9.13498 | 377 ft | 37 kts | 37° |
| 2026-05-07 17:22 | 38.78367 | -9.13340 | 374 ft | 16 kts | 74° |
| 2026-05-07 17:23 | 38.78314 | -9.13274 | 372 ft | 14 kts | 181° |
| 2026-05-07 17:23 | 38.78212 | -9.13321 | 370 ft | 18 kts | 201° |
| 2026-05-07 17:23 | 38.78131 | -9.13363 | 373 ft | 2 kts | 202° |
| 2026-05-07 17:24 | 38.78127 | -9.13365 | 373 ft | 2 kts | 202° |
| 2026-05-07 17:24 | 38.78126 | -9.13366 | 366 ft | 1 kts | 202° |
| 2026-05-07 17:24 | 38.78083 | -9.13389 | 370 ft | 11 kts | 202° |
| 2026-05-07 17:24 | 38.77999 | -9.13433 | 370 ft | 15 kts | 203° |
| 2026-05-07 17:25 | 38.77882 | -9.13497 | 372 ft | 20 kts | 203° |
| 2026-05-07 17:25 | 38.77738 | -9.13575 | 369 ft | 24 kts | 203° |
| 2026-05-07 17:25 | 38.77588 | -9.13655 | 370 ft | 26 kts | 202° |
| 2026-05-07 17:25 | 38.77437 | -9.13736 | 367 ft | 15 kts | 202° |
| 2026-05-07 17:26 | 38.77349 | -9.13783 | 368 ft | 16 kts | 202° |
| 2026-05-07 17:26 | 38.77237 | -9.13841 | 364 ft | 18 kts | 202° |
| 2026-05-07 17:26 | 38.77125 | -9.13897 | 365 ft | 16 kts | 190° |
| 2026-05-07 17:26 | 38.77011 | -9.13876 | 364 ft | 18 kts | 168° |
| 2026-05-07 17:27 | 38.76941 | -9.13854 | 365 ft | 5 kts | 142° |
| 2026-05-07 17:27 | 38.76933 | -9.13805 | 364 ft | 6 kts | 85° |
| 2026-05-07 17:27 | 38.76936 | -9.13775 | 362 ft | 0 kts | 78° |
| 2026-05-07 17:27 | 38.76938 | -9.13766 | 362 ft | 1 kts | 79° |
| 2026-05-07 17:28 | 38.76939 | -9.13759 | 360 ft | 1 kts | 78° |
| 2026-05-07 17:28 | 38.76940 | -9.13750 | 359 ft | 0 kts | 78° |